sensor_id;sensor_type;location;lat;lon;timestamp;temperature;humidity
25092;DHT22;13082;52.374;4.946;2022-08-02T00:01:50;17.70;99.90
25092;DHT22;13082;52.374;4.946;2022-08-02T00:04:15;17.70;99.90
25092;DHT22;13082;52.374;4.946;2022-08-02T00:06:41;17.70;99.90
25092;DHT22;13082;52.374;4.946;2022-08-02T00:09:07;17.70;99.90
25092;DHT22;13082;52.374;4.946;2022-08-02T00:11:33;17.60;99.90
25092;DHT22;13082;52.374;4.946;2022-08-02T00:13:58;17.60;99.90
25092;DHT22;13082;52.374;4.946;2022-08-02T00:16:24;17.60;99.90
25092;DHT22;13082;52.374;4.946;2022-08-02T00:18:50;17.60;99.90
25092;DHT22;13082;52.374;4.946;2022-08-02T00:21:15;17.60;99.90
25092;DHT22;13082;52.374;4.946;2022-08-02T00:23:41;17.60;99.90
25092;DHT22;13082;52.374;4.946;2022-08-02T00:26:06;17.50;99.90
25092;DHT22;13082;52.374;4.946;2022-08-02T00:28:32;17.50;99.90
25092;DHT22;13082;52.374;4.946;2022-08-02T00:30:58;17.50;99.90
25092;DHT22;13082;52.374;4.946;2022-08-02T00:33:25;17.40;99.90
25092;DHT22;13082;52.374;4.946;2022-08-02T00:35:51;17.40;99.90
25092;DHT22;13082;52.374;4.946;2022-08-02T00:38:16;17.50;99.90
25092;DHT22;13082;52.374;4.946;2022-08-02T00:40:50;17.50;99.90
25092;DHT22;13082;52.374;4.946;2022-08-02T00:43:16;17.40;99.90
25092;DHT22;13082;52.374;4.946;2022-08-02T00:45:42;17.40;99.90
25092;DHT22;13082;52.374;4.946;2022-08-02T00:48:09;17.40;99.90
25092;DHT22;13082;52.374;4.946;2022-08-02T00:50:35;17.40;99.90
25092;DHT22;13082;52.374;4.946;2022-08-02T00:53:01;17.40;99.90
25092;DHT22;13082;52.374;4.946;2022-08-02T00:55:28;17.40;99.90
25092;DHT22;13082;52.374;4.946;2022-08-02T00:57:54;17.30;99.90
25092;DHT22;13082;52.374;4.946;2022-08-02T01:00:20;17.30;99.90
25092;DHT22;13082;52.374;4.946;2022-08-02T01:02:46;17.20;99.90
25092;DHT22;13082;52.374;4.946;2022-08-02T01:05:12;17.20;99.90
25092;DHT22;13082;52.374;4.946;2022-08-02T01:07:38;17.20;99.90
25092;DHT22;13082;52.374;4.946;2022-08-02T01:10:05;17.10;99.90
25092;DHT22;13082;52.374;4.946;2022-08-02T01:12:31;17.10;99.90
25092;DHT22;13082;52.374;4.946;2022-08-02T01:15:02;17.00;99.90
25092;DHT22;13082;52.374;4.946;2022-08-02T01:17:40;17.00;99.90
25092;DHT22;13082;52.374;4.946;2022-08-02T01:23:41;17.00;99.90
25092;DHT22;13082;52.374;4.946;2022-08-02T01:26:36;17.00;99.90
25092;DHT22;13082;52.374;4.946;2022-08-02T01:31:48;17.00;99.90
25092;DHT22;13082;52.374;4.946;2022-08-02T01:34:51;17.00;99.90
25092;DHT22;13082;52.374;4.946;2022-08-02T01:37:34;17.00;99.90
25092;DHT22;13082;52.374;4.946;2022-08-02T01:40:07;17.00;99.90
25092;DHT22;13082;52.374;4.946;2022-08-02T01:42:36;17.00;99.90
25092;DHT22;13082;52.374;4.946;2022-08-02T01:45:04;16.90;99.90
25092;DHT22;13082;52.374;4.946;2022-08-02T01:47:33;16.90;99.90
25092;DHT22;13082;52.374;4.946;2022-08-02T01:50:02;16.90;99.90
25092;DHT22;13082;52.374;4.946;2022-08-02T01:52:34;16.90;99.90
25092;DHT22;13082;52.374;4.946;2022-08-02T01:55:07;17.00;99.90
25092;DHT22;13082;52.374;4.946;2022-08-02T01:57:40;17.00;99.90
25092;DHT22;13082;52.374;4.946;2022-08-02T02:00:07;17.00;99.90
25092;DHT22;13082;52.374;4.946;2022-08-02T02:02:37;17.00;99.90
25092;DHT22;13082;52.374;4.946;2022-08-02T02:05:11;16.90;99.90
25092;DHT22;13082;52.374;4.946;2022-08-02T02:07:38;16.90;99.90
25092;DHT22;13082;52.374;4.946;2022-08-02T02:10:05;16.90;99.90
25092;DHT22;13082;52.374;4.946;2022-08-02T02:12:33;16.90;99.90
25092;DHT22;13082;52.374;4.946;2022-08-02T02:15:01;16.90;99.90
25092;DHT22;13082;52.374;4.946;2022-08-02T02:17:28;16.90;99.90
25092;DHT22;13082;52.374;4.946;2022-08-02T02:19:57;16.80;99.90
25092;DHT22;13082;52.374;4.946;2022-08-02T02:22:24;16.80;99.90
25092;DHT22;13082;52.374;4.946;2022-08-02T02:24:50;16.90;99.90
25092;DHT22;13082;52.374;4.946;2022-08-02T02:27:16;16.90;99.90
25092;DHT22;13082;52.374;4.946;2022-08-02T02:29:44;16.90;99.90
25092;DHT22;13082;52.374;4.946;2022-08-02T02:32:13;16.90;99.90
25092;DHT22;13082;52.374;4.946;2022-08-02T02:34:43;16.90;99.90
25092;DHT22;13082;52.374;4.946;2022-08-02T02:37:19;16.90;99.90
25092;DHT22;13082;52.374;4.946;2022-08-02T02:39:45;16.90;99.90
25092;DHT22;13082;52.374;4.946;2022-08-02T02:42:14;17.00;99.90
25092;DHT22;13082;52.374;4.946;2022-08-02T02:44:41;16.90;99.90
25092;DHT22;13082;52.374;4.946;2022-08-02T02:47:09;16.90;99.90
25092;DHT22;13082;52.374;4.946;2022-08-02T02:49:36;16.90;99.90
25092;DHT22;13082;52.374;4.946;2022-08-02T02:52:03;16.90;99.90
25092;DHT22;13082;52.374;4.946;2022-08-02T02:54:31;16.90;99.90
25092;DHT22;13082;52.374;4.946;2022-08-02T02:56:58;16.90;99.90
25092;DHT22;13082;52.374;4.946;2022-08-02T02:59:25;16.80;99.90
25092;DHT22;13082;52.374;4.946;2022-08-02T03:01:52;16.80;99.90
25092;DHT22;13082;52.374;4.946;2022-08-02T03:04:19;16.90;99.90
25092;DHT22;13082;52.374;4.946;2022-08-02T03:06:45;16.90;99.90
25092;DHT22;13082;52.374;4.946;2022-08-02T03:09:11;16.90;99.90
25092;DHT22;13082;52.374;4.946;2022-08-02T03:11:36;16.90;99.90
25092;DHT22;13082;52.374;4.946;2022-08-02T03:14:04;16.90;99.90
25092;DHT22;13082;52.374;4.946;2022-08-02T03:16:30;16.90;99.90
25092;DHT22;13082;52.374;4.946;2022-08-02T03:18:57;16.90;99.90
25092;DHT22;13082;52.374;4.946;2022-08-02T03:21:23;16.90;99.90
25092;DHT22;13082;52.374;4.946;2022-08-02T03:23:49;16.90;99.90
25092;DHT22;13082;52.374;4.946;2022-08-02T03:26:15;16.90;99.90
25092;DHT22;13082;52.374;4.946;2022-08-02T03:28:41;16.90;99.90
25092;DHT22;13082;52.374;4.946;2022-08-02T03:31:08;16.90;99.90
25092;DHT22;13082;52.374;4.946;2022-08-02T03:33:34;17.00;99.90
25092;DHT22;13082;52.374;4.946;2022-08-02T03:36:07;16.90;99.90
25092;DHT22;13082;52.374;4.946;2022-08-02T03:38:35;17.00;99.90
25092;DHT22;13082;52.374;4.946;2022-08-02T03:41:01;17.00;99.90
25092;DHT22;13082;52.374;4.946;2022-08-02T03:43:28;17.00;99.90
25092;DHT22;13082;52.374;4.946;2022-08-02T03:45:54;17.00;99.90
25092;DHT22;13082;52.374;4.946;2022-08-02T03:48:21;17.00;99.90
25092;DHT22;13082;52.374;4.946;2022-08-02T03:50:47;17.10;99.90
25092;DHT22;13082;52.374;4.946;2022-08-02T03:53:16;17.10;99.90
25092;DHT22;13082;52.374;4.946;2022-08-02T03:55:42;17.20;99.90
25092;DHT22;13082;52.374;4.946;2022-08-02T03:58:08;17.10;99.90
25092;DHT22;13082;52.374;4.946;2022-08-02T04:00:40;17.10;99.90
25092;DHT22;13082;52.374;4.946;2022-08-02T04:03:06;17.10;99.90
25092;DHT22;13082;52.374;4.946;2022-08-02T04:05:31;17.10;99.90
25092;DHT22;13082;52.374;4.946;2022-08-02T04:07:57;17.10;99.90
25092;DHT22;13082;52.374;4.946;2022-08-02T04:10:23;17.10;99.90
25092;DHT22;13082;52.374;4.946;2022-08-02T04:12:48;17.10;99.90
25092;DHT22;13082;52.374;4.946;2022-08-02T04:15:14;17.10;99.90
25092;DHT22;13082;52.374;4.946;2022-08-02T04:17:44;17.10;99.90
25092;DHT22;13082;52.374;4.946;2022-08-02T04:20:17;17.10;99.90
25092;DHT22;13082;52.374;4.946;2022-08-02T04:25:10;17.10;99.90
25092;DHT22;13082;52.374;4.946;2022-08-02T04:27:36;17.10;99.90
25092;DHT22;13082;52.374;4.946;2022-08-02T04:30:06;17.10;99.90
25092;DHT22;13082;52.374;4.946;2022-08-02T04:32:32;17.10;99.90
25092;DHT22;13082;52.374;4.946;2022-08-02T04:34:59;17.10;99.90
25092;DHT22;13082;52.374;4.946;2022-08-02T04:37:26;17.10;99.90
25092;DHT22;13082;52.374;4.946;2022-08-02T04:39:51;17.20;99.90
25092;DHT22;13082;52.374;4.946;2022-08-02T04:42:21;17.20;99.90
25092;DHT22;13082;52.374;4.946;2022-08-02T04:44:48;17.20;99.90
25092;DHT22;13082;52.374;4.946;2022-08-02T04:47:14;17.20;99.90
25092;DHT22;13082;52.374;4.946;2022-08-02T04:49:39;17.20;99.90
25092;DHT22;13082;52.374;4.946;2022-08-02T04:52:05;17.20;99.90
25092;DHT22;13082;52.374;4.946;2022-08-02T04:54:31;17.20;99.90
25092;DHT22;13082;52.374;4.946;2022-08-02T04:56:56;17.20;99.90
25092;DHT22;13082;52.374;4.946;2022-08-02T04:59:22;17.20;99.90
25092;DHT22;13082;52.374;4.946;2022-08-02T05:01:47;17.20;99.90
25092;DHT22;13082;52.374;4.946;2022-08-02T05:04:13;17.20;99.90
25092;DHT22;13082;52.374;4.946;2022-08-02T05:06:38;17.20;99.90
25092;DHT22;13082;52.374;4.946;2022-08-02T05:09:04;17.20;99.90
25092;DHT22;13082;52.374;4.946;2022-08-02T05:11:30;17.40;99.90
25092;DHT22;13082;52.374;4.946;2022-08-02T05:13:56;17.40;99.90
25092;DHT22;13082;52.374;4.946;2022-08-02T05:16:21;17.50;99.90
25092;DHT22;13082;52.374;4.946;2022-08-02T05:18:47;17.50;99.90
25092;DHT22;13082;52.374;4.946;2022-08-02T05:21:13;17.50;99.90
25092;DHT22;13082;52.374;4.946;2022-08-02T05:23:38;17.50;99.90
25092;DHT22;13082;52.374;4.946;2022-08-02T05:26:04;17.60;99.90
25092;DHT22;13082;52.374;4.946;2022-08-02T05:28:30;17.60;99.90
25092;DHT22;13082;52.374;4.946;2022-08-02T05:30:55;17.70;99.90
25092;DHT22;13082;52.374;4.946;2022-08-02T05:33:21;17.70;99.90
25092;DHT22;13082;52.374;4.946;2022-08-02T05:35:46;17.70;99.90
25092;DHT22;13082;52.374;4.946;2022-08-02T05:38:12;17.70;99.90
25092;DHT22;13082;52.374;4.946;2022-08-02T05:40:37;17.80;99.90
25092;DHT22;13082;52.374;4.946;2022-08-02T05:43:13;17.90;99.90
25092;DHT22;13082;52.374;4.946;2022-08-02T05:45:39;17.80;99.90
25092;DHT22;13082;52.374;4.946;2022-08-02T05:48:06;17.90;99.90
25092;DHT22;13082;52.374;4.946;2022-08-02T05:50:33;17.90;99.90
25092;DHT22;13082;52.374;4.946;2022-08-02T05:53:11;18.00;99.90
25092;DHT22;13082;52.374;4.946;2022-08-02T05:55:46;18.20;99.90
25092;DHT22;13082;52.374;4.946;2022-08-02T06:01:03;18.30;99.90
25092;DHT22;13082;52.374;4.946;2022-08-02T06:03:38;18.30;99.90
25092;DHT22;13082;52.374;4.946;2022-08-02T06:06:12;18.40;99.90
25092;DHT22;13082;52.374;4.946;2022-08-02T06:08:42;18.50;99.90
25092;DHT22;13082;52.374;4.946;2022-08-02T06:11:11;18.50;99.90
25092;DHT22;13082;52.374;4.946;2022-08-02T06:13:40;18.50;99.90
25092;DHT22;13082;52.374;4.946;2022-08-02T06:16:06;18.40;99.90
25092;DHT22;13082;52.374;4.946;2022-08-02T06:18:32;18.40;99.90
25092;DHT22;13082;52.374;4.946;2022-08-02T06:21:01;18.40;99.90
25092;DHT22;13082;52.374;4.946;2022-08-02T06:23:28;18.30;99.90
25092;DHT22;13082;52.374;4.946;2022-08-02T06:25:55;18.30;99.90
25092;DHT22;13082;52.374;4.946;2022-08-02T06:28:22;18.20;99.90
25092;DHT22;13082;52.374;4.946;2022-08-02T06:30:48;18.30;99.90
25092;DHT22;13082;52.374;4.946;2022-08-02T06:33:14;18.40;99.90
25092;DHT22;13082;52.374;4.946;2022-08-02T06:35:55;18.50;99.90
25092;DHT22;13082;52.374;4.946;2022-08-02T06:38:27;18.60;99.90
25092;DHT22;13082;52.374;4.946;2022-08-02T06:41:03;18.60;99.90
25092;DHT22;13082;52.374;4.946;2022-08-02T06:46:07;18.70;99.90
25092;DHT22;13082;52.374;4.946;2022-08-02T06:48:33;18.80;99.90
25092;DHT22;13082;52.374;4.946;2022-08-02T06:51:04;18.90;99.90
25092;DHT22;13082;52.374;4.946;2022-08-02T06:53:30;18.90;99.90
25092;DHT22;13082;52.374;4.946;2022-08-02T06:55:56;19.00;99.90
25092;DHT22;13082;52.374;4.946;2022-08-02T06:58:22;19.00;99.90
25092;DHT22;13082;52.374;4.946;2022-08-02T07:00:47;19.10;99.90
25092;DHT22;13082;52.374;4.946;2022-08-02T07:03:13;19.20;99.90
25092;DHT22;13082;52.374;4.946;2022-08-02T07:05:41;19.20;99.90
25092;DHT22;13082;52.374;4.946;2022-08-02T07:08:12;19.20;99.90
25092;DHT22;13082;52.374;4.946;2022-08-02T07:10:37;19.30;99.90
25092;DHT22;13082;52.374;4.946;2022-08-02T07:13:03;19.30;99.90
25092;DHT22;13082;52.374;4.946;2022-08-02T07:15:28;19.40;99.90
25092;DHT22;13082;52.374;4.946;2022-08-02T07:17:54;19.40;99.90
25092;DHT22;13082;52.374;4.946;2022-08-02T07:20:20;19.40;99.90
25092;DHT22;13082;52.374;4.946;2022-08-02T07:22:45;19.40;99.90
25092;DHT22;13082;52.374;4.946;2022-08-02T07:25:11;19.40;99.90
25092;DHT22;13082;52.374;4.946;2022-08-02T07:27:37;19.40;99.90
25092;DHT22;13082;52.374;4.946;2022-08-02T07:30:03;19.50;99.90
25092;DHT22;13082;52.374;4.946;2022-08-02T07:32:31;19.60;99.90
25092;DHT22;13082;52.374;4.946;2022-08-02T07:34:57;19.70;99.90
25092;DHT22;13082;52.374;4.946;2022-08-02T07:37:25;19.80;99.90
25092;DHT22;13082;52.374;4.946;2022-08-02T07:39:51;19.80;99.90
25092;DHT22;13082;52.374;4.946;2022-08-02T07:42:16;19.80;99.90
25092;DHT22;13082;52.374;4.946;2022-08-02T07:44:42;19.90;99.90
25092;DHT22;13082;52.374;4.946;2022-08-02T07:47:08;20.00;99.90
25092;DHT22;13082;52.374;4.946;2022-08-02T07:49:33;20.00;99.90
25092;DHT22;13082;52.374;4.946;2022-08-02T07:51:59;20.00;99.90
25092;DHT22;13082;52.374;4.946;2022-08-02T07:54:24;20.00;99.90
25092;DHT22;13082;52.374;4.946;2022-08-02T07:56:50;20.00;99.90
25092;DHT22;13082;52.374;4.946;2022-08-02T07:59:18;20.20;99.90
25092;DHT22;13082;52.374;4.946;2022-08-02T08:01:44;20.20;99.90
25092;DHT22;13082;52.374;4.946;2022-08-02T08:04:10;20.30;99.90
25092;DHT22;13082;52.374;4.946;2022-08-02T08:06:35;20.30;99.90
25092;DHT22;13082;52.374;4.946;2022-08-02T08:09:01;20.40;99.90
25092;DHT22;13082;52.374;4.946;2022-08-02T08:11:27;20.50;99.90
25092;DHT22;13082;52.374;4.946;2022-08-02T08:13:52;20.60;99.90
25092;DHT22;13082;52.374;4.946;2022-08-02T08:16:18;20.60;99.90
25092;DHT22;13082;52.374;4.946;2022-08-02T08:18:44;20.60;99.90
25092;DHT22;13082;52.374;4.946;2022-08-02T08:21:09;20.70;99.90
25092;DHT22;13082;52.374;4.946;2022-08-02T08:23:35;20.80;99.90
25092;DHT22;13082;52.374;4.946;2022-08-02T08:26:02;20.90;99.90
25092;DHT22;13082;52.374;4.946;2022-08-02T08:28:27;20.90;99.90
25092;DHT22;13082;52.374;4.946;2022-08-02T08:30:53;21.00;99.90
25092;DHT22;13082;52.374;4.946;2022-08-02T08:33:19;21.10;99.90
25092;DHT22;13082;52.374;4.946;2022-08-02T08:35:45;21.20;99.90
25092;DHT22;13082;52.374;4.946;2022-08-02T08:38:10;21.30;99.90
25092;DHT22;13082;52.374;4.946;2022-08-02T08:40:36;21.30;99.90
25092;DHT22;13082;52.374;4.946;2022-08-02T08:43:03;21.50;99.90
25092;DHT22;13082;52.374;4.946;2022-08-02T08:45:29;21.60;99.90
25092;DHT22;13082;52.374;4.946;2022-08-02T08:48:00;21.70;99.90
25092;DHT22;13082;52.374;4.946;2022-08-02T08:50:26;21.70;99.90
25092;DHT22;13082;52.374;4.946;2022-08-02T08:53:06;21.70;99.90
25092;DHT22;13082;52.374;4.946;2022-08-02T08:55:34;21.70;99.90
25092;DHT22;13082;52.374;4.946;2022-08-02T08:58:02;21.80;99.90
25092;DHT22;13082;52.374;4.946;2022-08-02T09:00:33;21.90;99.90
25092;DHT22;13082;52.374;4.946;2022-08-02T09:03:02;22.00;99.90
25092;DHT22;13082;52.374;4.946;2022-08-02T09:05:29;22.00;99.90
25092;DHT22;13082;52.374;4.946;2022-08-02T09:07:54;22.00;99.90
25092;DHT22;13082;52.374;4.946;2022-08-02T09:15:38;22.20;99.90
25092;DHT22;13082;52.374;4.946;2022-08-02T09:18:04;22.40;99.90
25092;DHT22;13082;52.374;4.946;2022-08-02T09:20:49;22.50;99.90
25092;DHT22;13082;52.374;4.946;2022-08-02T09:23:16;22.60;99.90
25092;DHT22;13082;52.374;4.946;2022-08-02T09:26:36;22.60;99.90
25092;DHT22;13082;52.374;4.946;2022-08-02T09:28:45;22.60;99.90
25092;DHT22;13082;52.374;4.946;2022-08-02T09:31:22;22.50;99.90
25092;DHT22;13082;52.374;4.946;2022-08-02T09:33:57;22.50;99.90
25092;DHT22;13082;52.374;4.946;2022-08-02T09:36:24;22.50;99.90
25092;DHT22;13082;52.374;4.946;2022-08-02T09:38:59;22.50;99.90
25092;DHT22;13082;52.374;4.946;2022-08-02T09:41:31;22.50;99.90
25092;DHT22;13082;52.374;4.946;2022-08-02T09:43:58;22.60;99.90
25092;DHT22;13082;52.374;4.946;2022-08-02T09:46:27;22.60;99.90
25092;DHT22;13082;52.374;4.946;2022-08-02T09:49:05;22.80;99.90
25092;DHT22;13082;52.374;4.946;2022-08-02T09:51:32;22.80;99.90
25092;DHT22;13082;52.374;4.946;2022-08-02T09:54:03;22.90;99.90
25092;DHT22;13082;52.374;4.946;2022-08-02T09:56:58;22.90;99.90
25092;DHT22;13082;52.374;4.946;2022-08-02T09:59:25;22.90;99.90
25092;DHT22;13082;52.374;4.946;2022-08-02T10:01:53;23.00;99.90
25092;DHT22;13082;52.374;4.946;2022-08-02T10:04:23;23.10;99.90
25092;DHT22;13082;52.374;4.946;2022-08-02T10:06:50;23.20;99.90
25092;DHT22;13082;52.374;4.946;2022-08-02T10:09:16;23.30;99.90
25092;DHT22;13082;52.374;4.946;2022-08-02T10:11:42;23.40;99.90
25092;DHT22;13082;52.374;4.946;2022-08-02T10:14:09;23.50;99.90
25092;DHT22;13082;52.374;4.946;2022-08-02T10:16:44;23.50;99.90
25092;DHT22;13082;52.374;4.946;2022-08-02T10:19:10;23.50;99.90
25092;DHT22;13082;52.374;4.946;2022-08-02T10:21:37;23.60;99.90
25092;DHT22;13082;52.374;4.946;2022-08-02T10:24:07;23.50;99.90
25092;DHT22;13082;52.374;4.946;2022-08-02T10:26:34;23.60;99.90
25092;DHT22;13082;52.374;4.946;2022-08-02T10:29:00;23.70;99.90
25092;DHT22;13082;52.374;4.946;2022-08-02T10:31:32;23.80;99.90
25092;DHT22;13082;52.374;4.946;2022-08-02T10:34:00;23.80;99.90
25092;DHT22;13082;52.374;4.946;2022-08-02T10:36:31;24.00;99.90
25092;DHT22;13082;52.374;4.946;2022-08-02T10:39:00;24.10;99.90
25092;DHT22;13082;52.374;4.946;2022-08-02T10:41:51;24.10;99.90
25092;DHT22;13082;52.374;4.946;2022-08-02T10:44:29;24.10;99.90
25092;DHT22;13082;52.374;4.946;2022-08-02T10:49:59;24.30;99.90
25092;DHT22;13082;52.374;4.946;2022-08-02T10:52:26;24.40;99.90
25092;DHT22;13082;52.374;4.946;2022-08-02T11:02:47;24.80;99.90
25092;DHT22;13082;52.374;4.946;2022-08-02T11:05:25;24.90;99.90
25092;DHT22;13082;52.374;4.946;2022-08-02T11:07:51;24.80;99.90
25092;DHT22;13082;52.374;4.946;2022-08-02T11:10:38;24.70;99.90
25092;DHT22;13082;52.374;4.946;2022-08-02T11:13:15;24.60;99.90
25092;DHT22;13082;52.374;4.946;2022-08-02T11:15:56;24.60;99.90
25092;DHT22;13082;52.374;4.946;2022-08-02T11:21:29;24.60;99.90
25092;DHT22;13082;52.374;4.946;2022-08-02T11:23:56;24.60;99.90
25092;DHT22;13082;52.374;4.946;2022-08-02T11:26:42;24.60;99.90
25092;DHT22;13082;52.374;4.946;2022-08-02T11:29:08;24.70;99.90
25092;DHT22;13082;52.374;4.946;2022-08-02T11:31:39;24.60;99.90
25092;DHT22;13082;52.374;4.946;2022-08-02T11:34:05;24.60;99.90
25092;DHT22;13082;52.374;4.946;2022-08-02T11:36:30;24.60;99.90
25092;DHT22;13082;52.374;4.946;2022-08-02T11:39:13;24.60;99.90
25092;DHT22;13082;52.374;4.946;2022-08-02T11:41:39;24.60;99.90
25092;DHT22;13082;52.374;4.946;2022-08-02T11:44:05;24.60;99.90
25092;DHT22;13082;52.374;4.946;2022-08-02T11:46:30;24.60;99.90
25092;DHT22;13082;52.374;4.946;2022-08-02T11:48:56;24.60;99.90
25092;DHT22;13082;52.374;4.946;2022-08-02T11:51:22;24.60;99.90
25092;DHT22;13082;52.374;4.946;2022-08-02T11:53:53;24.60;99.90
25092;DHT22;13082;52.374;4.946;2022-08-02T11:56:30;24.60;99.90
25092;DHT22;13082;52.374;4.946;2022-08-02T11:59:09;24.60;99.90
25092;DHT22;13082;52.374;4.946;2022-08-02T12:01:37;24.80;99.90
25092;DHT22;13082;52.374;4.946;2022-08-02T12:04:05;24.90;99.90
25092;DHT22;13082;52.374;4.946;2022-08-02T12:06:31;24.90;99.90
25092;DHT22;13082;52.374;4.946;2022-08-02T12:09:02;24.80;99.90
25092;DHT22;13082;52.374;4.946;2022-08-02T12:11:28;24.80;99.90
25092;DHT22;13082;52.374;4.946;2022-08-02T12:13:54;24.80;99.90
25092;DHT22;13082;52.374;4.946;2022-08-02T12:16:21;25.00;99.90
25092;DHT22;13082;52.374;4.946;2022-08-02T12:19:06;25.10;99.90
25092;DHT22;13082;52.374;4.946;2022-08-02T12:21:46;25.20;99.90
25092;DHT22;13082;52.374;4.946;2022-08-02T12:24:12;25.30;99.90
25092;DHT22;13082;52.374;4.946;2022-08-02T12:26:46;25.30;99.90
25092;DHT22;13082;52.374;4.946;2022-08-02T12:29:12;25.30;99.90
25092;DHT22;13082;52.374;4.946;2022-08-02T12:31:43;25.30;99.90
25092;DHT22;13082;52.374;4.946;2022-08-02T12:34:17;25.20;99.90
25092;DHT22;13082;52.374;4.946;2022-08-02T12:39:39;25.00;99.90
25092;DHT22;13082;52.374;4.946;2022-08-02T12:42:06;25.00;99.90
25092;DHT22;13082;52.374;4.946;2022-08-02T12:44:33;25.00;99.90
25092;DHT22;13082;52.374;4.946;2022-08-02T12:47:03;25.20;99.90
25092;DHT22;13082;52.374;4.946;2022-08-02T12:49:29;25.30;99.90
25092;DHT22;13082;52.374;4.946;2022-08-02T12:51:55;25.50;99.90
25092;DHT22;13082;52.374;4.946;2022-08-02T12:54:26;25.50;99.90
25092;DHT22;13082;52.374;4.946;2022-08-02T12:56:52;25.60;99.90
25092;DHT22;13082;52.374;4.946;2022-08-02T12:59:35;25.70;99.90
25092;DHT22;13082;52.374;4.946;2022-08-02T13:02:04;25.70;99.90
25092;DHT22;13082;52.374;4.946;2022-08-02T13:04:30;25.70;99.90
25092;DHT22;13082;52.374;4.946;2022-08-02T13:06:56;25.70;99.90
25092;DHT22;13082;52.374;4.946;2022-08-02T13:09:23;25.60;99.90
25092;DHT22;13082;52.374;4.946;2022-08-02T13:11:48;25.50;99.90
25092;DHT22;13082;52.374;4.946;2022-08-02T13:14:15;25.60;99.90
25092;DHT22;13082;52.374;4.946;2022-08-02T13:16:42;25.50;99.90
25092;DHT22;13082;52.374;4.946;2022-08-02T13:19:08;25.50;99.90
25092;DHT22;13082;52.374;4.946;2022-08-02T13:21:33;25.50;99.90
25092;DHT22;13082;52.374;4.946;2022-08-02T13:23:59;25.60;99.90
25092;DHT22;13082;52.374;4.946;2022-08-02T13:26:25;25.60;99.90
25092;DHT22;13082;52.374;4.946;2022-08-02T13:28:51;25.70;99.90
25092;DHT22;13082;52.374;4.946;2022-08-02T13:31:16;25.70;99.90
25092;DHT22;13082;52.374;4.946;2022-08-02T13:33:42;25.80;99.90
25092;DHT22;13082;52.374;4.946;2022-08-02T13:36:08;25.90;99.90
25092;DHT22;13082;52.374;4.946;2022-08-02T13:38:33;26.00;99.90
25092;DHT22;13082;52.374;4.946;2022-08-02T13:40:59;26.00;99.90
25092;DHT22;13082;52.374;4.946;2022-08-02T13:43:34;26.00;99.90
25092;DHT22;13082;52.374;4.946;2022-08-02T13:46:00;25.90;99.90
25092;DHT22;13082;52.374;4.946;2022-08-02T13:48:26;25.90;99.90
25092;DHT22;13082;52.374;4.946;2022-08-02T13:50:52;26.00;99.90
25092;DHT22;13082;52.374;4.946;2022-08-02T13:53:18;25.90;99.90
25092;DHT22;13082;52.374;4.946;2022-08-02T13:55:43;26.00;99.90
25092;DHT22;13082;52.374;4.946;2022-08-02T13:58:09;26.00;99.90
25092;DHT22;13082;52.374;4.946;2022-08-02T14:00:35;26.10;99.90
25092;DHT22;13082;52.374;4.946;2022-08-02T14:03:00;26.00;99.90
25092;DHT22;13082;52.374;4.946;2022-08-02T14:05:26;26.10;99.90
25092;DHT22;13082;52.374;4.946;2022-08-02T14:07:56;26.20;99.90
25092;DHT22;13082;52.374;4.946;2022-08-02T14:10:21;26.00;99.90
25092;DHT22;13082;52.374;4.946;2022-08-02T14:12:47;25.90;99.90
25092;DHT22;13082;52.374;4.946;2022-08-02T14:15:13;25.80;99.90
25092;DHT22;13082;52.374;4.946;2022-08-02T14:17:39;25.80;99.90
25092;DHT22;13082;52.374;4.946;2022-08-02T14:20:04;25.70;99.90
25092;DHT22;13082;52.374;4.946;2022-08-02T14:22:30;25.80;99.90
25092;DHT22;13082;52.374;4.946;2022-08-02T14:24:56;26.00;99.90
25092;DHT22;13082;52.374;4.946;2022-08-02T14:27:21;26.10;99.90
25092;DHT22;13082;52.374;4.946;2022-08-02T14:29:48;26.20;99.90
25092;DHT22;13082;52.374;4.946;2022-08-02T14:32:16;26.20;99.90
25092;DHT22;13082;52.374;4.946;2022-08-02T14:34:41;26.30;99.90
25092;DHT22;13082;52.374;4.946;2022-08-02T14:37:09;26.30;99.90
25092;DHT22;13082;52.374;4.946;2022-08-02T14:39:35;26.30;99.90
25092;DHT22;13082;52.374;4.946;2022-08-02T14:42:00;26.30;99.90
25092;DHT22;13082;52.374;4.946;2022-08-02T14:44:27;26.20;99.90
25092;DHT22;13082;52.374;4.946;2022-08-02T14:46:53;26.10;99.90
25092;DHT22;13082;52.374;4.946;2022-08-02T14:49:22;26.00;99.90
25092;DHT22;13082;52.374;4.946;2022-08-02T14:51:47;26.00;99.90
25092;DHT22;13082;52.374;4.946;2022-08-02T14:54:13;25.90;99.90
25092;DHT22;13082;52.374;4.946;2022-08-02T14:56:39;25.90;99.90
25092;DHT22;13082;52.374;4.946;2022-08-02T14:59:04;25.90;99.90
25092;DHT22;13082;52.374;4.946;2022-08-02T15:01:30;25.90;99.90
25092;DHT22;13082;52.374;4.946;2022-08-02T15:03:56;25.90;99.90
25092;DHT22;13082;52.374;4.946;2022-08-02T15:06:22;26.00;99.90
25092;DHT22;13082;52.374;4.946;2022-08-02T15:08:48;26.00;99.90
25092;DHT22;13082;52.374;4.946;2022-08-02T15:11:14;26.00;99.90
25092;DHT22;13082;52.374;4.946;2022-08-02T15:13:40;26.00;99.90
25092;DHT22;13082;52.374;4.946;2022-08-02T15:16:05;26.00;99.90
25092;DHT22;13082;52.374;4.946;2022-08-02T15:18:31;26.10;99.90
25092;DHT22;13082;52.374;4.946;2022-08-02T15:20:56;26.10;99.90
25092;DHT22;13082;52.374;4.946;2022-08-02T15:23:22;26.10;99.90
25092;DHT22;13082;52.374;4.946;2022-08-02T15:25:49;26.10;99.90
25092;DHT22;13082;52.374;4.946;2022-08-02T15:28:16;26.10;99.90
25092;DHT22;13082;52.374;4.946;2022-08-02T15:30:41;26.20;99.90
25092;DHT22;13082;52.374;4.946;2022-08-02T15:33:07;26.20;99.90
25092;DHT22;13082;52.374;4.946;2022-08-02T15:35:33;26.20;99.90
25092;DHT22;13082;52.374;4.946;2022-08-02T15:37:58;26.20;99.90
25092;DHT22;13082;52.374;4.946;2022-08-02T15:40:24;26.10;99.90
25092;DHT22;13082;52.374;4.946;2022-08-02T15:42:50;26.10;99.90
25092;DHT22;13082;52.374;4.946;2022-08-02T15:45:16;26.00;99.90
25092;DHT22;13082;52.374;4.946;2022-08-02T15:47:43;25.90;99.90
25092;DHT22;13082;52.374;4.946;2022-08-02T15:50:09;25.90;99.90
25092;DHT22;13082;52.374;4.946;2022-08-02T15:52:35;25.80;99.90
25092;DHT22;13082;52.374;4.946;2022-08-02T15:55:01;25.90;99.90
25092;DHT22;13082;52.374;4.946;2022-08-02T15:57:27;25.90;99.90
25092;DHT22;13082;52.374;4.946;2022-08-02T15:59:53;25.90;99.90
25092;DHT22;13082;52.374;4.946;2022-08-02T16:02:20;25.90;99.90
25092;DHT22;13082;52.374;4.946;2022-08-02T16:04:46;25.90;99.90
25092;DHT22;13082;52.374;4.946;2022-08-02T16:07:12;26.00;99.90
25092;DHT22;13082;52.374;4.946;2022-08-02T16:09:38;25.90;99.90
25092;DHT22;13082;52.374;4.946;2022-08-02T16:12:04;25.90;99.90